sensor_id;sensor_type;location;lat;lon;timestamp;pressure;altitude;pressure_sealevel;temperature;humidity
22020;BME280;51298;53.362;-1.518;2023-12-20T00:01:00;99442.91;;;6.11;76.56
22020;BME280;51298;53.362;-1.518;2023-12-20T00:04:11;99441.19;;;6.01;76.29
22020;BME280;51298;53.362;-1.518;2023-12-20T00:11:52;99446.72;;;6.07;77.55
22020;BME280;51298;53.362;-1.518;2023-12-20T00:22:32;99441.34;;;6.30;75.65
22020;BME280;51298;53.362;-1.518;2023-12-20T00:30:07;99452.56;;;6.30;75.61
22020;BME280;51298;53.362;-1.518;2023-12-20T00:47:19;99457.06;;;6.28;77.03
22020;BME280;51298;53.362;-1.518;2023-12-20T00:54:30;99474.50;;;6.26;77.43
22020;BME280;51298;53.362;-1.518;2023-12-20T01:14:48;99451.94;;;6.38;76.42
22020;BME280;51298;53.362;-1.518;2023-12-20T01:18:19;99448.94;;;6.43;76.63
22020;BME280;51298;53.362;-1.518;2023-12-20T01:21:42;99435.03;;;6.44;76.31
22020;BME280;51298;53.362;-1.518;2023-12-20T01:25:28;99451.41;;;6.44;76.62
22020;BME280;51298;53.362;-1.518;2023-12-20T01:29:11;99437.63;;;6.44;76.75
22020;BME280;51298;53.362;-1.518;2023-12-20T01:32:53;99432.56;;;6.42;76.35
22020;BME280;51298;53.362;-1.518;2023-12-20T01:40:09;99426.97;;;6.47;77.39
22020;BME280;51298;53.362;-1.518;2023-12-20T01:51:14;99420.09;;;6.36;76.77
22020;BME280;51298;53.362;-1.518;2023-12-20T02:03:10;99408.38;;;6.42;78.09
22020;BME280;51298;53.362;-1.518;2023-12-20T02:13:58;99415.25;;;6.52;77.69
22020;BME280;51298;53.362;-1.518;2023-12-20T02:33:56;99399.28;;;6.57;78.75
22020;BME280;51298;53.362;-1.518;2023-12-20T02:37:44;99384.56;;;6.57;78.93
22020;BME280;51298;53.362;-1.518;2023-12-20T02:41:10;99396.44;;;6.60;79.65
22020;BME280;51298;53.362;-1.518;2023-12-20T02:44:44;99395.34;;;6.63;79.20
22020;BME280;51298;53.362;-1.518;2023-12-20T02:49:17;99394.28;;;6.65;78.88
22020;BME280;51298;53.362;-1.518;2023-12-20T02:52:54;99386.63;;;6.64;79.94
22020;BME280;51298;53.362;-1.518;2023-12-20T02:56:09;99396.31;;;6.62;80.52
22020;BME280;51298;53.362;-1.518;2023-12-20T02:59:35;99386.28;;;6.47;81.39
22020;BME280;51298;53.362;-1.518;2023-12-20T03:02:41;99374.19;;;6.57;80.48
22020;BME280;51298;53.362;-1.518;2023-12-20T03:05:29;99385.88;;;6.52;81.56
22020;BME280;51298;53.362;-1.518;2023-12-20T03:17:48;99362.63;;;6.41;82.48
22020;BME280;51298;53.362;-1.518;2023-12-20T03:24:53;99350.16;;;6.25;84.72
22020;BME280;51298;53.362;-1.518;2023-12-20T03:28:26;99377.72;;;6.26;85.01
22020;BME280;51298;53.362;-1.518;2023-12-20T03:31:38;99374.00;;;6.19;85.92
22020;BME280;51298;53.362;-1.518;2023-12-20T03:34:29;99380.59;;;6.23;86.60
22020;BME280;51298;53.362;-1.518;2023-12-20T03:38:21;99391.56;;;6.36;84.96
22020;BME280;51298;53.362;-1.518;2023-12-20T03:41:55;99385.94;;;6.31;85.86
22020;BME280;51298;53.362;-1.518;2023-12-20T03:44:53;99380.22;;;6.37;85.04
22020;BME280;51298;53.362;-1.518;2023-12-20T03:48:20;99362.22;;;6.45;83.69
22020;BME280;51298;53.362;-1.518;2023-12-20T03:51:56;99381.00;;;6.58;82.92
22020;BME280;51298;53.362;-1.518;2023-12-20T03:54:47;99383.59;;;6.58;81.94
22020;BME280;51298;53.362;-1.518;2023-12-20T04:06:00;99375.50;;;6.52;84.22
22020;BME280;51298;53.362;-1.518;2023-12-20T04:12:53;99366.09;;;6.51;84.33
22020;BME280;51298;53.362;-1.518;2023-12-20T04:15:48;99354.34;;;6.56;84.19
22020;BME280;51298;53.362;-1.518;2023-12-20T04:18:49;99368.03;;;6.58;83.07
22020;BME280;51298;53.362;-1.518;2023-12-20T04:21:24;99345.63;;;6.57;83.33
22020;BME280;51298;53.362;-1.518;2023-12-20T04:24:20;99341.38;;;6.56;83.43
22020;BME280;51298;53.362;-1.518;2023-12-20T04:27:07;99338.38;;;6.61;83.08
22020;BME280;51298;53.362;-1.518;2023-12-20T04:30:41;99333.88;;;6.63;82.96
22020;BME280;51298;53.362;-1.518;2023-12-20T04:33:50;99319.28;;;6.62;82.75
22020;BME280;51298;53.362;-1.518;2023-12-20T04:36:43;99327.88;;;6.63;82.93
22020;BME280;51298;53.362;-1.518;2023-12-20T04:40:10;99315.41;;;6.56;84.23
22020;BME280;51298;53.362;-1.518;2023-12-20T04:43:18;99319.69;;;6.57;83.36
22020;BME280;51298;53.362;-1.518;2023-12-20T04:46:19;99326.38;;;6.60;83.33
22020;BME280;51298;53.362;-1.518;2023-12-20T04:49:29;99341.66;;;6.53;84.05
22020;BME280;51298;53.362;-1.518;2023-12-20T04:52:55;99341.53;;;6.55;83.98
22020;BME280;51298;53.362;-1.518;2023-12-20T04:55:45;99352.47;;;6.58;83.41
22020;BME280;51298;53.362;-1.518;2023-12-20T04:58:56;99359.53;;;6.56;84.34
22020;BME280;51298;53.362;-1.518;2023-12-20T05:02:38;99355.97;;;6.48;85.43
22020;BME280;51298;53.362;-1.518;2023-12-20T05:06:08;99351.19;;;6.43;86.69
22020;BME280;51298;53.362;-1.518;2023-12-20T05:13:38;99347.78;;;6.43;87.37
22020;BME280;51298;53.362;-1.518;2023-12-20T05:20:37;99357.03;;;6.45;87.09
22020;BME280;51298;53.362;-1.518;2023-12-20T05:23:49;99357.50;;;6.50;87.31
22020;BME280;51298;53.362;-1.518;2023-12-20T05:30:27;99349.53;;;6.42;85.95
22020;BME280;51298;53.362;-1.518;2023-12-20T05:36:58;99329.47;;;6.44;84.24
22020;BME280;51298;53.362;-1.518;2023-12-20T05:40:05;99324.25;;;6.34;84.54
22020;BME280;51298;53.362;-1.518;2023-12-20T05:43:03;99313.34;;;6.41;82.75
22020;BME280;51298;53.362;-1.518;2023-12-20T05:45:49;99315.38;;;6.37;84.13
22020;BME280;51298;53.362;-1.518;2023-12-20T05:48:30;99308.59;;;6.46;82.99
22020;BME280;51298;53.362;-1.518;2023-12-20T05:51:38;99313.78;;;6.55;83.26
22020;BME280;51298;53.362;-1.518;2023-12-20T05:54:17;99320.63;;;6.56;83.42
22020;BME280;51298;53.362;-1.518;2023-12-20T05:57:19;99326.09;;;6.53;83.55
22020;BME280;51298;53.362;-1.518;2023-12-20T06:08:03;99298.09;;;6.67;83.82
22020;BME280;51298;53.362;-1.518;2023-12-20T06:11:07;99322.44;;;6.66;83.79
22020;BME280;51298;53.362;-1.518;2023-12-20T06:14:03;99324.06;;;6.67;84.82
22020;BME280;51298;53.362;-1.518;2023-12-20T06:16:36;99317.34;;;6.64;84.48
22020;BME280;51298;53.362;-1.518;2023-12-20T06:20:01;99315.47;;;6.66;83.87
22020;BME280;51298;53.362;-1.518;2023-12-20T06:22:41;99317.50;;;6.63;83.24
22020;BME280;51298;53.362;-1.518;2023-12-20T06:25:32;99310.69;;;6.71;81.98
22020;BME280;51298;53.362;-1.518;2023-12-20T06:28:19;99325.28;;;6.72;82.27
22020;BME280;51298;53.362;-1.518;2023-12-20T06:31:39;99343.19;;;6.75;81.48
22020;BME280;51298;53.362;-1.518;2023-12-20T06:34:55;99342.94;;;6.78;81.28
22020;BME280;51298;53.362;-1.518;2023-12-20T06:42:04;99330.59;;;6.61;82.43
22020;BME280;51298;53.362;-1.518;2023-12-20T06:44:43;99341.97;;;6.70;82.16
22020;BME280;51298;53.362;-1.518;2023-12-20T06:51:53;99346.16;;;6.61;82.20
22020;BME280;51298;53.362;-1.518;2023-12-20T06:54:31;99330.72;;;6.59;82.05
22020;BME280;51298;53.362;-1.518;2023-12-20T07:15:15;99362.13;;;6.56;84.91
22020;BME280;51298;53.362;-1.518;2023-12-20T07:17:59;99344.94;;;6.55;84.51
22020;BME280;51298;53.362;-1.518;2023-12-20T07:20:52;99365.28;;;6.60;84.14
22020;BME280;51298;53.362;-1.518;2023-12-20T07:23:26;99357.34;;;6.52;85.10
22020;BME280;51298;53.362;-1.518;2023-12-20T07:26:13;99338.53;;;6.59;84.67
22020;BME280;51298;53.362;-1.518;2023-12-20T07:32:48;99359.38;;;6.48;86.07
22020;BME280;51298;53.362;-1.518;2023-12-20T07:36:19;99357.50;;;6.50;84.85
22020;BME280;51298;53.362;-1.518;2023-12-20T07:40:12;99345.75;;;6.56;83.70
22020;BME280;51298;53.362;-1.518;2023-12-20T07:43:20;99370.38;;;6.62;83.01
22020;BME280;51298;53.362;-1.518;2023-12-20T07:52:59;99365.19;;;6.62;82.58
22020;BME280;51298;53.362;-1.518;2023-12-20T08:08:06;99354.94;;;6.70;82.36
22020;BME280;51298;53.362;-1.518;2023-12-20T08:11:25;99363.84;;;6.77;82.32
22020;BME280;51298;53.362;-1.518;2023-12-20T08:15:19;99383.91;;;6.75;82.55
22020;BME280;51298;53.362;-1.518;2023-12-20T08:18:40;99373.81;;;6.81;82.84
22020;BME280;51298;53.362;-1.518;2023-12-20T08:30:38;99400.19;;;6.77;84.89
22020;BME280;51298;53.362;-1.518;2023-12-20T08:34:07;99383.09;;;6.84;83.54
22020;BME280;51298;53.362;-1.518;2023-12-20T08:36:40;99367.25;;;6.77;83.54
22020;BME280;51298;53.362;-1.518;2023-12-20T08:39:30;99378.22;;;6.81;83.62
22020;BME280;51298;53.362;-1.518;2023-12-20T08:42:03;99378.47;;;6.78;84.04
22020;BME280;51298;53.362;-1.518;2023-12-20T08:45:23;99381.06;;;6.78;84.13
22020;BME280;51298;53.362;-1.518;2023-12-20T08:48:27;99368.50;;;6.83;84.36
22020;BME280;51298;53.362;-1.518;2023-12-20T08:51:36;99375.63;;;6.91;83.78
22020;BME280;51298;53.362;-1.518;2023-12-20T08:58:18;99370.72;;;6.97;84.32
22020;BME280;51298;53.362;-1.518;2023-12-20T09:01:10;99382.06;;;6.96;84.58
22020;BME280;51298;53.362;-1.518;2023-12-20T09:04:32;99389.97;;;6.95;84.42
22020;BME280;51298;53.362;-1.518;2023-12-20T09:07:42;99388.88;;;6.97;84.26
22020;BME280;51298;53.362;-1.518;2023-12-20T09:11:08;99379.47;;;7.06;83.84
22020;BME280;51298;53.362;-1.518;2023-12-20T09:13:48;99387.81;;;7.09;83.47
22020;BME280;51298;53.362;-1.518;2023-12-20T09:16:58;99392.59;;;7.14;83.16
22020;BME280;51298;53.362;-1.518;2023-12-20T09:19:46;99390.81;;;7.15;82.84
22020;BME280;51298;53.362;-1.518;2023-12-20T09:23:19;99383.06;;;7.24;82.71
22020;BME280;51298;53.362;-1.518;2023-12-20T09:26:06;99364.72;;;7.26;82.82
22020;BME280;51298;53.362;-1.518;2023-12-20T09:29:33;99374.97;;;7.18;84.17
22020;BME280;51298;53.362;-1.518;2023-12-20T09:32:06;99360.22;;;7.08;85.31
22020;BME280;51298;53.362;-1.518;2023-12-20T09:35:09;99364.28;;;7.01;86.66
22020;BME280;51298;53.362;-1.518;2023-12-20T09:38:03;99358.25;;;6.91;88.03
22020;BME280;51298;53.362;-1.518;2023-12-20T09:41:04;99365.53;;;6.97;87.24
22020;BME280;51298;53.362;-1.518;2023-12-20T09:43:41;99361.97;;;6.98;87.81
22020;BME280;51298;53.362;-1.518;2023-12-20T09:46:37;99356.91;;;6.97;87.99
22020;BME280;51298;53.362;-1.518;2023-12-20T09:49:27;99357.31;;;7.02;88.18
22020;BME280;51298;53.362;-1.518;2023-12-20T09:52:14;99357.72;;;7.07;88.21
22020;BME280;51298;53.362;-1.518;2023-12-20T09:54:55;99347.88;;;7.10;88.46
22020;BME280;51298;53.362;-1.518;2023-12-20T09:58:19;99349.00;;;7.08;88.55
22020;BME280;51298;53.362;-1.518;2023-12-20T10:01:18;99344.34;;;7.12;89.06
22020;BME280;51298;53.362;-1.518;2023-12-20T10:04:56;99355.41;;;7.14;89.43
22020;BME280;51298;53.362;-1.518;2023-12-20T10:08:16;99358.72;;;7.16;89.48
22020;BME280;51298;53.362;-1.518;2023-12-20T10:11:32;99357.88;;;7.25;89.74
22020;BME280;51298;53.362;-1.518;2023-12-20T10:14:24;99338.19;;;7.32;89.49
22020;BME280;51298;53.362;-1.518;2023-12-20T10:17:18;99341.63;;;7.32;88.74
22020;BME280;51298;53.362;-1.518;2023-12-20T10:19:53;99341.75;;;7.41;88.88
22020;BME280;51298;53.362;-1.518;2023-12-20T10:22:40;99337.13;;;7.34;89.10
22020;BME280;51298;53.362;-1.518;2023-12-20T10:25:13;99330.13;;;7.45;89.04
22020;BME280;51298;53.362;-1.518;2023-12-20T10:28:12;99317.94;;;7.45;88.76
22020;BME280;51298;53.362;-1.518;2023-12-20T10:30:51;99317.25;;;7.53;88.46
22020;BME280;51298;53.362;-1.518;2023-12-20T10:33:45;99324.34;;;7.61;88.41
22020;BME280;51298;53.362;-1.518;2023-12-20T10:36:30;99317.41;;;7.61;88.19
22020;BME280;51298;53.362;-1.518;2023-12-20T10:39:17;99301.75;;;7.71;88.04
22020;BME280;51298;53.362;-1.518;2023-12-20T10:41:52;99284.97;;;7.65;88.43
22020;BME280;51298;53.362;-1.518;2023-12-20T10:44:38;99276.19;;;7.56;89.04
22020;BME280;51298;53.362;-1.518;2023-12-20T10:47:13;99255.13;;;7.59;89.04
22020;BME280;51298;53.362;-1.518;2023-12-20T10:49:59;99259.38;;;7.61;89.12
22020;BME280;51298;53.362;-1.518;2023-12-20T10:52:32;99253.88;;;7.64;88.43
22020;BME280;51298;53.362;-1.518;2023-12-20T10:55:19;99255.41;;;7.56;88.62
22020;BME280;51298;53.362;-1.518;2023-12-20T10:57:54;99250.47;;;7.63;88.38
22020;BME280;51298;53.362;-1.518;2023-12-20T11:00:59;99240.47;;;7.68;88.61
22020;BME280;51298;53.362;-1.518;2023-12-20T11:03:37;99230.31;;;7.75;88.42
22020;BME280;51298;53.362;-1.518;2023-12-20T11:07:01;99224.16;;;7.76;88.17
22020;BME280;51298;53.362;-1.518;2023-12-20T11:13:43;99182.88;;;7.63;88.20
22020;BME280;51298;53.362;-1.518;2023-12-20T11:16:23;99188.47;;;7.68;88.13
22020;BME280;51298;53.362;-1.518;2023-12-20T11:19:11;99174.91;;;7.74;88.03
22020;BME280;51298;53.362;-1.518;2023-12-20T11:21:46;99164.75;;;7.81;87.66
22020;BME280;51298;53.362;-1.518;2023-12-20T11:25:06;99157.34;;;7.86;88.45
22020;BME280;51298;53.362;-1.518;2023-12-20T11:27:35;99149.69;;;7.85;88.31
22020;BME280;51298;53.362;-1.518;2023-12-20T11:30:24;99115.44;;;7.89;87.68
22020;BME280;51298;53.362;-1.518;2023-12-20T11:33:00;99154.97;;;7.93;88.30
22020;BME280;51298;53.362;-1.518;2023-12-20T11:40:08;99120.47;;;7.91;88.03
22020;BME280;51298;53.362;-1.518;2023-12-20T11:43:32;99123.78;;;7.93;88.64
22020;BME280;51298;53.362;-1.518;2023-12-20T11:46:22;99092.03;;;7.89;88.59
22020;BME280;51298;53.362;-1.518;2023-12-20T11:49:00;99078.59;;;7.94;87.47
22020;BME280;51298;53.362;-1.518;2023-12-20T11:52:18;99085.50;;;8.03;86.52
22020;BME280;51298;53.362;-1.518;2023-12-20T11:54:57;99073.81;;;8.07;86.20
22020;BME280;51298;53.362;-1.518;2023-12-20T11:57:44;99072.44;;;8.13;86.50
22020;BME280;51298;53.362;-1.518;2023-12-20T12:00:27;99030.13;;;8.11;85.80
22020;BME280;51298;53.362;-1.518;2023-12-20T12:03:30;99029.38;;;8.18;85.46
22020;BME280;51298;53.362;-1.518;2023-12-20T12:06:05;99019.50;;;8.22;85.28
22020;BME280;51298;53.362;-1.518;2023-12-20T12:08:52;99037.47;;;8.33;85.62
22020;BME280;51298;53.362;-1.518;2023-12-20T12:11:24;99015.72;;;8.16;86.09
22020;BME280;51298;53.362;-1.518;2023-12-20T12:14:11;99012.91;;;8.10;86.41
22020;BME280;51298;53.362;-1.518;2023-12-20T12:16:48;99005.78;;;8.12;86.38
22020;BME280;51298;53.362;-1.518;2023-12-20T12:19:37;99013.34;;;8.23;84.75
22020;BME280;51298;53.362;-1.518;2023-12-20T12:22:21;99021.78;;;8.25;84.96
22020;BME280;51298;53.362;-1.518;2023-12-20T12:25:36;99012.06;;;8.27;85.12
22020;BME280;51298;53.362;-1.518;2023-12-20T12:28:41;99002.59;;;8.26;85.49
22020;BME280;51298;53.362;-1.518;2023-12-20T12:32:11;98995.78;;;8.25;85.90
22020;BME280;51298;53.362;-1.518;2023-12-20T12:35:13;99002.47;;;8.27;85.89
22020;BME280;51298;53.362;-1.518;2023-12-20T12:38:07;99019.25;;;8.33;85.37
22020;BME280;51298;53.362;-1.518;2023-12-20T12:40:57;99000.47;;;8.39;84.65
22020;BME280;51298;53.362;-1.518;2023-12-20T12:43:47;99002.41;;;8.37;85.46
22020;BME280;51298;53.362;-1.518;2023-12-20T12:47:22;98984.84;;;8.39;84.76
22020;BME280;51298;53.362;-1.518;2023-12-20T12:51:09;98971.53;;;8.42;84.43
22020;BME280;51298;53.362;-1.518;2023-12-20T12:54:33;98989.75;;;8.42;85.07
22020;BME280;51298;53.362;-1.518;2023-12-20T12:58:08;98983.06;;;8.40;86.03
22020;BME280;51298;53.362;-1.518;2023-12-20T13:01:22;98980.63;;;8.38;84.83
22020;BME280;51298;53.362;-1.518;2023-12-20T13:04:35;98962.94;;;8.42;85.65
22020;BME280;51298;53.362;-1.518;2023-12-20T13:11:10;98964.84;;;8.40;85.99
22020;BME280;51298;53.362;-1.518;2023-12-20T13:14:09;98958.97;;;8.38;85.99
22020;BME280;51298;53.362;-1.518;2023-12-20T13:17:10;98955.25;;;8.40;86.33
22020;BME280;51298;53.362;-1.518;2023-12-20T13:20:07;98951.16;;;8.38;86.23
22020;BME280;51298;53.362;-1.518;2023-12-20T13:23:07;98929.31;;;8.30;86.95
22020;BME280;51298;53.362;-1.518;2023-12-20T13:26:27;98933.03;;;8.28;87.52
22020;BME280;51298;53.362;-1.518;2023-12-20T13:29:05;98918.75;;;8.32;87.73
22020;BME280;51298;53.362;-1.518;2023-12-20T13:32:09;98913.38;;;8.33;87.32
22020;BME280;51298;53.362;-1.518;2023-12-20T13:35:23;98911.75;;;8.32;86.93
22020;BME280;51298;53.362;-1.518;2023-12-20T13:38:04;98902.63;;;8.28;87.28
22020;BME280;51298;53.362;-1.518;2023-12-20T13:41:28;98886.19;;;8.28;87.13
22020;BME280;51298;53.362;-1.518;2023-12-20T13:52:27;98879.88;;;8.30;87.40
22020;BME280;51298;53.362;-1.518;2023-12-20T13:56:01;98836.72;;;8.20;88.39
22020;BME280;51298;53.362;-1.518;2023-12-20T13:59:09;98852.22;;;8.29;86.75
22020;BME280;51298;53.362;-1.518;2023-12-20T14:02:49;98821.78;;;8.30;87.94
22020;BME280;51298;53.362;-1.518;2023-12-20T14:13:32;98821.16;;;8.28;87.64
22020;BME280;51298;53.362;-1.518;2023-12-20T14:21:26;98829.28;;;8.33;87.38
22020;BME280;51298;53.362;-1.518;2023-12-20T14:24:47;98820.91;;;8.39;86.78
22020;BME280;51298;53.362;-1.518;2023-12-20T14:28:01;98823.66;;;8.38;87.03
22020;BME280;51298;53.362;-1.518;2023-12-20T14:30:53;98817.31;;;8.40;87.11
22020;BME280;51298;53.362;-1.518;2023-12-20T14:38:16;98826.63;;;8.43;87.05
22020;BME280;51298;53.362;-1.518;2023-12-20T14:49:32;98860.91;;;8.38;88.22
22020;BME280;51298;53.362;-1.518;2023-12-20T14:52:19;98873.94;;;8.38;88.20
22020;BME280;51298;53.362;-1.518;2023-12-20T14:55:25;98876.63;;;8.37;87.86
22020;BME280;51298;53.362;-1.518;2023-12-20T14:58:03;98874.03;;;8.37;88.20
22020;BME280;51298;53.362;-1.518;2023-12-20T15:01:40;98882.69;;;8.37;87.72
22020;BME280;51298;53.362;-1.518;2023-12-20T15:04:22;98887.59;;;8.40;87.72
22020;BME280;51298;53.362;-1.518;2023-12-20T15:11:09;98875.03;;;8.36;88.12
22020;BME280;51298;53.362;-1.518;2023-12-20T15:13:59;98882.00;;;8.35;88.52
22020;BME280;51298;53.362;-1.518;2023-12-20T15:16:59;98885.91;;;8.31;88.37
22020;BME280;51298;53.362;-1.518;2023-12-20T15:19:57;98892.56;;;8.33;88.42
22020;BME280;51298;53.362;-1.518;2023-12-20T15:22:58;98873.84;;;8.30;88.63
22020;BME280;51298;53.362;-1.518;2023-12-20T15:25:43;98874.50;;;8.32;88.32
22020;BME280;51298;53.362;-1.518;2023-12-20T15:28:35;98866.03;;;8.30;88.71
22020;BME280;51298;53.362;-1.518;2023-12-20T15:34:46;98866.03;;;8.30;89.33
22020;BME280;51298;53.362;-1.518;2023-12-20T15:38:18;98858.56;;;8.27;89.02
22020;BME280;51298;53.362;-1.518;2023-12-20T15:41:34;98864.72;;;8.26;89.10
22020;BME280;51298;53.362;-1.518;2023-12-20T15:47:59;98847.34;;;8.26;89.07
22020;BME280;51298;53.362;-1.518;2023-12-20T15:50:44;98843.75;;;8.27;89.04
22020;BME280;51298;53.362;-1.518;2023-12-20T15:53:17;98843.09;;;8.25;89.19
22020;BME280;51298;53.362;-1.518;2023-12-20T15:56:03;98845.69;;;8.25;89.39
22020;BME280;51298;53.362;-1.518;2023-12-20T15:58:35;98841.94;;;8.20;89.80
22020;BME280;51298;53.362;-1.518;2023-12-20T16:01:21;98836.56;;;8.21;89.83
22020;BME280;51298;53.362;-1.518;2023-12-20T16:04:04;98830.88;;;8.26;89.51
22020;BME280;51298;53.362;-1.518;2023-12-20T16:07:05;98827.63;;;8.24;89.34
22020;BME280;51298;53.362;-1.518;2023-12-20T16:10:28;98820.47;;;8.26;89.19
22020;BME280;51298;53.362;-1.518;2023-12-20T16:13:10;98813.50;;;8.26;89.15
22020;BME280;51298;53.362;-1.518;2023-12-20T16:16:04;98822.56;;;8.22;89.24
22020;BME280;51298;53.362;-1.518;2023-12-20T16:18:41;98813.00;;;8.23;89.46
22020;BME280;51298;53.362;-1.518;2023-12-20T16:21:28;98806.31;;;8.20;89.86
22020;BME280;51298;53.362;-1.518;2023-12-20T16:24:02;98801.63;;;8.24;89.55
22020;BME280;51298;53.362;-1.518;2023-12-20T16:26:41;98793.00;;;8.23;89.59
22020;BME280;51298;53.362;-1.518;2023-12-20T16:29:23;98805.19;;;8.23;89.77
22020;BME280;51298;53.362;-1.518;2023-12-20T16:32:00;98797.53;;;8.21;89.91
22020;BME280;51298;53.362;-1.518;2023-12-20T16:34:51;98782.09;;;8.20;90.20
22020;BME280;51298;53.362;-1.518;2023-12-20T16:37:26;98779.69;;;8.26;89.31
22020;BME280;51298;53.362;-1.518;2023-12-20T16:40:16;98789.25;;;8.26;89.51
22020;BME280;51298;53.362;-1.518;2023-12-20T16:43:03;98793.53;;;8.35;89.35
22020;BME280;51298;53.362;-1.518;2023-12-20T16:46:00;98791.56;;;8.29;89.73
22020;BME280;51298;53.362;-1.518;2023-12-20T16:48:32;98787.53;;;8.35;89.09
22020;BME280;51298;53.362;-1.518;2023-12-20T16:51:18;98787.97;;;8.30;89.37
22020;BME280;51298;53.362;-1.518;2023-12-20T16:54:01;98786.66;;;8.26;90.07
22020;BME280;51298;53.362;-1.518;2023-12-20T16:56:48;98770.75;;;8.29;89.98
22020;BME280;51298;53.362;-1.518;2023-12-20T16:59:31;98763.13;;;8.36;89.42
22020;BME280;51298;53.362;-1.518;2023-12-20T17:02:19;98776.63;;;8.31;89.80
22020;BME280;51298;53.362;-1.518;2023-12-20T17:04:55;98745.53;;;8.29;90.12
22020;BME280;51298;53.362;-1.518;2023-12-20T17:07:55;98747.69;;;8.34;89.57
22020;BME280;51298;53.362;-1.518;2023-12-20T17:10:33;98750.00;;;8.45;89.24
22020;BME280;51298;53.362;-1.518;2023-12-20T17:13:25;98753.06;;;8.41;89.38
22020;BME280;51298;53.362;-1.518;2023-12-20T17:16:07;98748.53;;;8.43;88.86
22020;BME280;51298;53.362;-1.518;2023-12-20T17:18:57;98756.69;;;8.48;88.80
22020;BME280;51298;53.362;-1.518;2023-12-20T17:21:34;98759.28;;;8.48;88.81
22020;BME280;51298;53.362;-1.518;2023-12-20T17:24:26;98759.75;;;8.43;89.15
22020;BME280;51298;53.362;-1.518;2023-12-20T17:27:04;98766.44;;;8.46;89.17
22020;BME280;51298;53.362;-1.518;2023-12-20T17:29:51;98769.19;;;8.44;89.59
22020;BME280;51298;53.362;-1.518;2023-12-20T17:32:24;98774.91;;;8.48;89.45
22020;BME280;51298;53.362;-1.518;2023-12-20T17:35:17;98781.22;;;8.45;89.64
22020;BME280;51298;53.362;-1.518;2023-12-20T17:37:53;98777.66;;;8.46;89.51
22020;BME280;51298;53.362;-1.518;2023-12-20T17:40:39;98764.34;;;8.49;89.25
22020;BME280;51298;53.362;-1.518;2023-12-20T17:43:13;98788.09;;;8.54;88.48
22020;BME280;51298;53.362;-1.518;2023-12-20T17:46:00;98809.72;;;8.55;89.06
22020;BME280;51298;53.362;-1.518;2023-12-20T17:48:38;98810.53;;;8.55;88.93
22020;BME280;51298;53.362;-1.518;2023-12-20T17:51:24;98818.53;;;8.54;89.38
22020;BME280;51298;53.362;-1.518;2023-12-20T17:53:58;98812.50;;;8.53;89.43
22020;BME280;51298;53.362;-1.518;2023-12-20T17:56:43;98828.59;;;8.57;89.18
22020;BME280;51298;53.362;-1.518;2023-12-20T17:59:17;98858.22;;;8.56;89.26
22020;BME280;51298;53.362;-1.518;2023-12-20T18:02:12;98858.38;;;8.54;89.69
22020;BME280;51298;53.362;-1.518;2023-12-20T18:04:51;98867.81;;;8.55;89.21
22020;BME280;51298;53.362;-1.518;2023-12-20T18:08:16;98857.56;;;8.54;89.54
22020;BME280;51298;53.362;-1.518;2023-12-20T18:11:06;98847.78;;;8.48;90.07
22020;BME280;51298;53.362;-1.518;2023-12-20T18:14:04;98856.25;;;8.50;90.02
22020;BME280;51298;53.362;-1.518;2023-12-20T18:16:41;98851.34;;;8.47;90.48
22020;BME280;51298;53.362;-1.518;2023-12-20T18:19:30;98847.13;;;8.46;90.44
22020;BME280;51298;53.362;-1.518;2023-12-20T18:22:08;98844.06;;;8.50;89.99
22020;BME280;51298;53.362;-1.518;2023-12-20T18:25:01;98843.25;;;8.50;89.68
22020;BME280;51298;53.362;-1.518;2023-12-20T18:28:13;98832.19;;;8.56;89.35
22020;BME280;51298;53.362;-1.518;2023-12-20T18:31:02;98834.28;;;8.52;89.71
22020;BME280;51298;53.362;-1.518;2023-12-20T18:33:38;98844.06;;;8.50;89.85
22020;BME280;51298;53.362;-1.518;2023-12-20T18:36:32;98820.25;;;8.45;90.45
22020;BME280;51298;53.362;-1.518;2023-12-20T18:39:06;98836.41;;;8.57;89.52
22020;BME280;51298;53.362;-1.518;2023-12-20T18:41:51;98826.47;;;8.52;89.74
22020;BME280;51298;53.362;-1.518;2023-12-20T18:44:24;98816.41;;;8.58;88.92
22020;BME280;51298;53.362;-1.518;2023-12-20T18:47:10;98835.28;;;8.60;88.66
22020;BME280;51298;53.362;-1.518;2023-12-20T18:49:43;98834.94;;;8.54;89.20
22020;BME280;51298;53.362;-1.518;2023-12-20T18:52:28;98838.06;;;8.58;89.08
22020;BME280;51298;53.362;-1.518;2023-12-20T18:55:01;98833.66;;;8.59;89.35
22020;BME280;51298;53.362;-1.518;2023-12-20T18:57:48;98846.34;;;8.53;89.95
22020;BME280;51298;53.362;-1.518;2023-12-20T19:00:22;98840.00;;;8.56;89.12
22020;BME280;51298;53.362;-1.518;2023-12-20T19:03:10;98842.97;;;8.61;88.80
22020;BME280;51298;53.362;-1.518;2023-12-20T19:05:43;98834.47;;;8.59;89.08
22020;BME280;51298;53.362;-1.518;2023-12-20T19:08:29;98822.44;;;8.58;89.26
22020;BME280;51298;53.362;-1.518;2023-12-20T19:11:02;98819.47;;;8.53;89.87
22020;BME280;51298;53.362;-1.518;2023-12-20T19:13:48;98823.72;;;8.54;89.61
22020;BME280;51298;53.362;-1.518;2023-12-20T19:16:21;98834.47;;;8.59;89.12
22020;BME280;51298;53.362;-1.518;2023-12-20T19:19:08;98826.66;;;8.59;89.57
22020;BME280;51298;53.362;-1.518;2023-12-20T19:21:41;98838.09;;;8.66;88.77
22020;BME280;51298;53.362;-1.518;2023-12-20T19:24:27;98845.22;;;8.64;89.19
22020;BME280;51298;53.362;-1.518;2023-12-20T19:27:00;98839.06;;;8.65;88.88
22020;BME280;51298;53.362;-1.518;2023-12-20T19:29:47;98850.13;;;8.67;88.33
22020;BME280;51298;53.362;-1.518;2023-12-20T19:32:22;98854.50;;;8.67;89.00
22020;BME280;51298;53.362;-1.518;2023-12-20T19:35:07;98838.38;;;8.63;89.18
22020;BME280;51298;53.362;-1.518;2023-12-20T19:37:40;98815.78;;;8.64;88.92
22020;BME280;51298;53.362;-1.518;2023-12-20T19:40:34;98820.66;;;8.67;88.36
22020;BME280;51298;53.362;-1.518;2023-12-20T19:43:17;98815.94;;;8.62;88.49
22020;BME280;51298;53.362;-1.518;2023-12-20T19:46:08;98829.09;;;8.61;89.21
22020;BME280;51298;53.362;-1.518;2023-12-20T19:48:48;98836.59;;;8.64;89.14
22020;BME280;51298;53.362;-1.518;2023-12-20T19:51:39;98834.00;;;8.64;89.17
22020;BME280;51298;53.362;-1.518;2023-12-20T19:54:12;98832.72;;;8.68;88.50
22020;BME280;51298;53.362;-1.518;2023-12-20T19:57:08;98826.88;;;8.74;88.20
22020;BME280;51298;53.362;-1.518;2023-12-20T19:59:46;98822.16;;;8.69;88.24
22020;BME280;51298;53.362;-1.518;2023-12-20T20:02:35;98819.06;;;8.74;88.18